createdAt,value
2023-10-15T00:04:29.344Z,3.00
2023-10-15T00:09:31.994Z,2.80
2023-10-15T00:14:33.759Z,2.90
2023-10-15T00:19:35.670Z,3.00
2023-10-15T00:24:39.081Z,3.30
2023-10-15T00:29:40.844Z,2.80
2023-10-15T00:34:42.649Z,3.50
2023-10-15T00:39:44.488Z,3.70
2023-10-15T00:44:46.924Z,3.10
2023-10-15T00:49:49.429Z,3.10
2023-10-15T00:54:51.724Z,3.10
2023-10-15T00:59:56.361Z,3.00
2023-10-15T01:05:01.606Z,3.40
2023-10-15T01:10:04.633Z,2.90
2023-10-15T01:15:08.377Z,3.50
2023-10-15T01:20:11.106Z,3.30
2023-10-15T01:25:33.886Z,3.30
2023-10-15T01:30:37.326Z,4.40
2023-10-15T01:40:45.754Z,3.20
2023-10-15T01:45:48.645Z,4.00
2023-10-15T01:50:53.479Z,2.80
2023-10-15T01:56:00.716Z,3.00
2023-10-15T02:01:32.951Z,2.90
2023-10-15T02:06:44.202Z,3.30
2023-10-15T02:11:49.160Z,2.90
2023-10-15T02:16:51.459Z,2.70
2023-10-15T02:21:53.360Z,3.20
2023-10-15T02:26:55.186Z,2.60
2023-10-15T02:31:59.826Z,2.30
2023-10-15T02:37:05.633Z,2.40
2023-10-15T02:42:07.504Z,2.20
2023-10-15T02:47:30.057Z,3.00
2023-10-15T02:52:47.703Z,2.50
2023-10-15T02:57:53.113Z,8.20
2023-10-15T03:02:59.082Z,2.90
2023-10-15T03:08:01.111Z,3.00
2023-10-15T03:13:03.408Z,3.40
2023-10-15T03:18:05.449Z,2.80
2023-10-15T03:23:07.420Z,2.70
2023-10-15T03:28:12.879Z,2.40
2023-10-15T03:33:15.172Z,2.60
2023-10-15T03:38:24.665Z,2.50
2023-10-15T03:43:30.842Z,2.50
2023-10-15T03:48:40.643Z,2.10
2023-10-15T03:53:43.228Z,2.30
2023-10-15T03:58:46.012Z,2.90
2023-10-15T04:03:49.350Z,2.90
2023-10-15T04:09:03.670Z,3.30
2023-10-15T04:14:15.797Z,3.20
2023-10-15T04:19:19.588Z,2.70
2023-10-15T04:24:41.850Z,2.60
2023-10-15T04:29:56.170Z,2.90
2023-10-15T04:35:09.927Z,3.20
2023-10-15T04:40:19.065Z,2.60
2023-10-15T04:45:25.421Z,2.50
2023-10-15T04:50:30.958Z,2.30
2023-10-15T04:55:32.920Z,2.30
2023-10-15T05:00:36.779Z,3.00
2023-10-15T05:05:38.937Z,2.10
2023-10-15T05:10:52.408Z,2.10
2023-10-15T05:15:54.561Z,2.10
2023-10-15T05:20:56.474Z,2.10
2023-10-15T05:25:58.384Z,2.40
2023-10-15T05:31:01.961Z,2.20
2023-10-15T05:36:05.201Z,2.20
2023-10-15T05:41:08.197Z,2.00
2023-10-15T05:46:10.345Z,2.30
2023-10-15T05:51:12.155Z,2.70
2023-10-15T05:56:14.799Z,2.60
2023-10-15T06:01:17.014Z,2.70
2023-10-15T06:06:18.969Z,2.40
2023-10-15T06:11:20.762Z,3.10
2023-10-15T06:16:22.993Z,2.20
2023-10-15T06:21:25.604Z,3.00
2023-10-15T06:31:31.851Z,2.10
2023-10-15T06:36:34.688Z,2.70
2023-10-15T06:41:37.890Z,2.70
2023-10-15T06:46:40.283Z,2.90
2023-10-15T06:51:43.515Z,3.00
2023-10-15T06:56:45.695Z,2.30
2023-10-15T07:01:47.508Z,3.10
2023-10-15T07:06:50.754Z,2.10
2023-10-15T07:11:52.560Z,1.90
2023-10-15T07:16:54.398Z,2.50
2023-10-15T07:21:57.123Z,1.70
2023-10-15T07:26:59.431Z,2.10
2023-10-15T07:32:01.351Z,2.70
2023-10-15T07:37:03.231Z,2.00
2023-10-15T07:42:08.200Z,2.10
2023-10-15T07:47:10.322Z,2.00
2023-10-15T07:52:12.229Z,2.30
2023-10-15T07:57:15.455Z,1.80
2023-10-15T08:02:17.421Z,2.30
2023-10-15T08:07:19.668Z,1.80
2023-10-15T08:12:21.577Z,1.70
2023-10-15T08:17:27.775Z,1.60
2023-10-15T08:22:29.782Z,1.80
2023-10-15T08:27:31.783Z,1.80
2023-10-15T08:32:33.600Z,1.60
2023-10-15T08:37:36.595Z,1.90
2023-10-15T08:42:44.141Z,2.40
2023-10-15T08:47:48.414Z,1.80
2023-10-15T08:52:54.561Z,4.40
2023-10-15T08:57:58.256Z,1.80
2023-10-15T09:03:02.568Z,1.50
2023-10-15T09:08:09.482Z,2.00
2023-10-15T09:13:16.507Z,2.30
2023-10-15T09:18:19.316Z,1.40
2023-10-15T09:23:24.962Z,2.00
2023-10-15T09:28:30.221Z,2.00
2023-10-15T09:33:33.656Z,3.10
2023-10-15T09:38:36.752Z,1.90
2023-10-15T09:43:39.126Z,1.70
2023-10-15T09:48:43.600Z,1.80
2023-10-15T09:53:47.524Z,1.90
2023-10-15T09:58:49.375Z,1.70
2023-10-15T10:04:15.860Z,1.40
2023-10-15T10:15:16.931Z,1.20
2023-10-15T10:20:21.063Z,1.60
2023-10-15T10:25:33.883Z,1.60
2023-10-15T10:30:37.655Z,1.10
2023-10-15T10:35:44.633Z,1.70
2023-10-15T10:40:49.546Z,2.20
2023-10-15T10:46:04.204Z,1.30
2023-10-15T10:51:19.795Z,1.90
2023-10-15T10:56:21.581Z,1.30
2023-10-15T11:01:23.371Z,1.40
2023-10-15T11:06:25.221Z,1.60
2023-10-15T11:11:27.117Z,1.80
2023-10-15T11:16:33.297Z,1.50
2023-10-15T11:21:41.649Z,1.40
2023-10-15T11:26:45.949Z,1.80
2023-10-15T11:31:49.462Z,1.20
2023-10-15T11:36:58.917Z,1.40
2023-10-15T11:42:03.822Z,1.10
2023-10-15T11:47:13.457Z,1.30
2023-10-15T11:52:19.985Z,1.40
2023-10-15T11:57:26.670Z,1.30
2023-10-15T12:02:30.350Z,1.50
2023-10-15T12:07:33.432Z,1.20
2023-10-15T12:12:35.333Z,1.50
2023-10-15T12:17:37.259Z,2.00
2023-10-15T12:22:39.778Z,1.40
2023-10-15T12:27:41.639Z,1.60
2023-10-15T12:32:47.360Z,1.60
2023-10-15T12:37:59.720Z,1.30
2023-10-15T12:43:09.624Z,1.90
2023-10-15T12:48:12.126Z,1.30
2023-10-15T12:53:15.097Z,1.30
2023-10-15T12:58:17.239Z,1.50
2023-10-15T13:03:19.504Z,2.10
2023-10-15T13:08:21.419Z,1.70
2023-10-15T13:13:23.315Z,1.60
2023-10-15T13:18:25.191Z,1.30
2023-10-15T13:23:30.490Z,1.10
2023-10-15T13:28:33.704Z,1.80
2023-10-15T13:33:37.981Z,2.30
2023-10-15T13:38:40.164Z,1.30
2023-10-15T13:43:42.235Z,1.80
2023-10-15T13:48:45.537Z,1.70
2023-10-15T13:53:47.918Z,1.60
2023-10-15T13:58:50.084Z,1.90
2023-10-15T14:03:56.058Z,1.30
2023-10-15T14:08:58.329Z,1.60
2023-10-15T14:14:00.380Z,1.30
2023-10-15T14:19:02.278Z,1.40
2023-10-15T14:24:11.467Z,2.10
2023-10-15T14:29:13.388Z,1.40
2023-10-15T14:34:15.245Z,1.40
2023-10-15T14:39:23.799Z,1.10
2023-10-15T14:44:26.038Z,1.50
2023-10-15T14:49:28.521Z,1.30
2023-10-15T14:54:30.774Z,1.90
2023-10-15T15:04:34.709Z,1.30
2023-10-15T15:09:36.943Z,2.50
2023-10-15T15:14:39.003Z,1.20
2023-10-15T15:19:40.811Z,1.90
2023-10-15T15:24:42.752Z,1.70
2023-10-15T15:29:46.342Z,1.50
2023-10-15T15:34:50.420Z,1.60
2023-10-15T15:39:52.305Z,1.40
2023-10-15T15:44:54.662Z,2.40
2023-10-15T15:49:56.814Z,2.10
2023-10-15T15:54:59.651Z,2.00
2023-10-15T16:00:01.461Z,1.80
2023-10-15T16:05:15.822Z,4.50
2023-10-15T16:10:18.538Z,2.60
2023-10-15T16:15:24.184Z,3.60
2023-10-15T16:20:26.028Z,5.90
2023-10-15T16:25:27.953Z,4.20
2023-10-15T16:30:29.840Z,3.80
2023-10-15T16:35:32.742Z,2.60
2023-10-15T16:40:34.822Z,2.80
2023-10-15T16:45:38.650Z,2.40
2023-10-15T16:50:42.378Z,2.90
2023-10-15T16:55:44.894Z,3.20
2023-10-15T17:00:47.372Z,3.30
2023-10-15T17:10:52.063Z,1.80
2023-10-15T17:15:53.970Z,2.40
2023-10-15T17:20:57.198Z,2.50
2023-10-15T17:25:59.048Z,2.80
2023-10-15T17:31:01.156Z,3.20
2023-10-15T17:36:03.407Z,3.20
2023-10-15T17:41:05.481Z,4.10
2023-10-15T17:46:07.560Z,2.60
2023-10-15T17:51:11.625Z,3.70
2023-10-15T17:56:13.908Z,4.30
2023-10-15T18:01:16.128Z,3.50
2023-10-15T18:06:20.586Z,2.90
2023-10-15T18:11:23.039Z,3.10
2023-10-15T18:16:24.997Z,3.00
2023-10-15T18:21:28.068Z,3.10
2023-10-15T18:26:30.043Z,4.10
2023-10-15T18:31:32.230Z,2.90
2023-10-15T18:36:34.459Z,3.50
2023-10-15T18:41:36.282Z,3.10
2023-10-15T18:46:38.077Z,3.80
2023-10-15T18:51:41.496Z,3.90
2023-10-15T18:56:43.579Z,3.80
2023-10-15T19:01:45.492Z,3.90
2023-10-15T19:06:48.044Z,4.20
2023-10-15T19:16:53.708Z,3.30
2023-10-15T19:21:55.833Z,3.60
2023-10-15T19:26:57.666Z,3.90
2023-10-15T19:31:59.614Z,5.00
2023-10-15T19:37:01.851Z,4.90
2023-10-15T19:42:04.399Z,3.60
2023-10-15T19:47:07.641Z,3.30
2023-10-15T19:52:10.835Z,2.40
2023-10-15T19:57:12.871Z,2.60
2023-10-15T20:02:14.844Z,3.30
2023-10-15T20:07:16.891Z,3.80
2023-10-15T20:12:19.003Z,4.10
2023-10-15T20:17:21.110Z,4.40
2023-10-15T20:22:22.912Z,4.60
2023-10-15T20:27:24.899Z,3.60
2023-10-15T20:32:39.532Z,3.10
2023-10-15T20:37:49.491Z,3.90
2023-10-15T20:42:51.413Z,3.20
2023-10-15T20:47:54.790Z,3.00
2023-10-15T20:52:59.584Z,4.40
2023-10-15T20:58:03.244Z,6.10
2023-10-15T21:03:07.107Z,4.30
2023-10-15T21:08:11.977Z,3.40
2023-10-15T21:13:14.513Z,3.10
2023-10-15T21:18:16.976Z,2.70
2023-10-15T21:23:19.510Z,3.30
2023-10-15T21:28:27.868Z,2.50
2023-10-15T21:33:29.695Z,2.90
2023-10-15T21:38:31.759Z,3.00
2023-10-15T21:43:33.513Z,2.20
2023-10-15T21:48:36.270Z,2.60
2023-10-15T21:53:38.320Z,2.20
2023-10-15T21:58:40.122Z,2.90
2023-10-15T22:03:42.257Z,2.50
2023-10-15T22:08:45.090Z,2.60
2023-10-15T22:13:56.407Z,2.50
2023-10-15T22:18:58.934Z,2.40
2023-10-15T22:29:07.816Z,2.20
2023-10-15T22:34:09.903Z,2.20
2023-10-15T22:39:11.741Z,2.30
2023-10-15T22:44:13.630Z,2.80
2023-10-15T22:49:20.729Z,2.50
2023-10-15T22:54:22.791Z,2.70
2023-10-15T22:59:28.889Z,3.00
2023-10-15T23:04:31.005Z,2.80
2023-10-15T23:09:32.926Z,2.60
2023-10-15T23:14:35.862Z,2.60
2023-10-15T23:19:41.702Z,2.70
2023-10-15T23:24:44.246Z,2.20
2023-10-15T23:29:46.133Z,2.40
2023-10-15T23:34:48.736Z,2.60
2023-10-15T23:39:50.636Z,2.60
2023-10-15T23:44:52.509Z,2.30
2023-10-15T23:49:54.327Z,1.90
2023-10-15T23:55:01.254Z,1.90
